• Join FlightAware (Why Join?)
  • Login
  • US Flag 
09:31PM EDT


 

Airport Tracker/Info


-or-


 

Live Flight TrackerFlight Track Log ✈ JBU1472 ✈ 10-Nov-2013 ✈ KFLL - KLGA

Flight Track Log - Related Links

Times and Time Zones

All times are in EST time to prevent confusion due to time zone crossing. See the JBU1472 flight status page for this flight to view local times or setup timezone preferences in your user account.

Time Position Orientation Groundspeed Altitude Reporting Facility
EST Latitude Longitude Course Direction KTS MPH feet Rate Location/Type
09:00PM 26.0750 -80.1344 58° Northeast 181 208 800  Level Miami Center
09:00PM 26.0736 -80.1042 93° East 169 194 2,000 2,100 Climbing Miami Center
09:01PM 26.0794 -80.0306 85° East 263 303 4,200 1,560 Climbing Miami Center
09:02PM 26.1058 -79.9642 66° East 267 307 5,000 1,260 Climbing Miami Center
09:03PM 26.5190 -79.9912 50° Northeast  Level Estimated
09:03PM 26.1256 -79.9275 59° Northeast 268 308 6,100  Level Miami Center
09:03PM 26.1450 -79.8886 61° Northeast 279 321 7,800 3,000 Climbing Miami Center
09:04PM 26.5048 -79.8610 97° East  Level FlightAware Approximate
09:04PM 26.1644 -79.8544 58° Northeast 279 321 9,100  Level Miami Center
09:05PM 26.6166 -79.8212 55° Northeast  Level Estimated
09:06PM 26.7284 -79.7814 58° Northeast  Level Estimated
09:06PM 26.2581 -79.6669 61° Northeast 390 449 13,000  Level Miami Center
09:07PM 26.3247 -79.5642 54° Northeast 369 425 15,600 1,440 Climbing Miami Center
09:08PM 26.3828 -79.4750 54° Northeast 379 436 15,900 780 Climbing Miami Center
09:09PM 26.4558 -79.3675 53° Northeast 384 442 17,200 1,080 Climbing Miami Center
09:10PM 26.5158 -79.2758 54° Northeast 396 456 18,100 1,380 Climbing Miami Center
09:11PM 26.5986 -79.1825 45° Northeast 409 471 20,000 1,680 Climbing Miami Center
09:12PM 26.6939 -79.1075 35° Northeast 409 471 21,600 1,500 Climbing Miami Center
09:13PM 26.8114 -79.0678 17° North 409 471 23,100 1,320 Climbing Miami Center
09:14PM 26.9289 -79.0422 11° North 416 479 24,300 1,320 Climbing Miami Center
09:15PM 27.0503 -79.0211 North 423 487 25,800 1,500 Climbing Miami Center
09:16PM 27.1844 -78.9908 11° North 445 512 27,400 1,320 Climbing Miami Center
09:17PM 27.3081 -78.9675 10° North 450 518 28,500 1,020 Climbing Miami Center
09:18PM 27.4253 -78.9439 10° North 463 533 29,500 1,200 Climbing Miami Center
09:19PM 27.5531 -78.9250 North 464 534 30,900 1,380 Climbing Miami Center
09:20PM 27.6953 -78.9064 North 464 534 32,300 1,260 Climbing Miami Center
09:21PM 27.8250 -78.8900 North 464 534 33,500 1,200 Climbing Miami Center
09:22PM 27.9503 -78.8736 North 464 534 34,700 660 Climbing Miami Center
09:23PM 28.0697 -78.8567 North 459 528 34,900 60 Climbing Miami Center
09:24PM 28.1972 -78.8378 North 454 522 34,900  Level Miami Center
09:25PM 28.3206 -78.8211 North 447 514 34,900  Level Miami Center
09:26PM 28.4481 -78.8044 North 447 514 34,900  Level Miami Center
09:27PM 28.5672 -78.7875 North 442 509 34,900  Level Miami Center
09:28PM 28.6928 -78.7708 North 447 514 34,900  Level Miami Center
09:29PM 28.8142 -78.7517 North 442 509 34,900  Level Miami Center
09:30PM 28.9311 -78.7369 North 457 526 35,000  Climbing Miami Center
09:31PM 29.0544 -78.7200 North 452 520 35,000 -60 Level Miami Center
09:32PM 29.1778 -78.7008 North 447 514 34,900 -60 Descending Miami Center
09:33PM 29.3011 -78.6814 North 447 514 34,900  Level Miami Center
09:34PM 29.4244 -78.6644 North 446 513 34,900  Level Miami Center
09:35PM 29.5519 -78.6497 North 446 513 34,900  Level Miami Center
09:36PM 29.6792 -78.6375 North 446 513 34,900  Level Miami Center
09:37PM 29.8006 -78.6181 North 446 513 34,900  Level Miami Center
09:38PM 29.8975 -78.5925 13° North 446 513 35,000  Climbing Jacksonville Center
09:39PM 30.0244 -78.5794 North 472 543 34,900 -60 Descending Jacksonville Center
09:40PM 30.1492 -78.5594 North 452 520 34,900  Level Jacksonville Center
09:41PM 30.2569 -78.5450 North 438 504 35,000  Climbing Jacksonville Center
09:42PM 30.3858 -78.5272 North 443 510 35,000  Level Jacksonville Center
09:43PM 30.5125 -78.5094 North 449 517 35,000 -60 Level Jacksonville Center
09:44PM 30.6328 -78.4844 10° North 455 524 34,900  Descending Jacksonville Center
09:45PM 30.7617 -78.4664 North 455 524 35,000  Climbing Jacksonville Center
09:46PM 30.8883 -78.4461 North 449 517 35,000  Level Jacksonville Center
09:47PM 31.0169 -78.4253 North 456 525 35,000 -60 Level Jacksonville Center
09:48PM 31.1414 -78.4050 North 456 525 34,900 -60 Descending Jacksonville Center
09:49PM 31.2658 -78.3819 North 456 525 34,900  Level Jacksonville Center
09:50PM 31.3883 -78.3639 North 451 519 34,900  Level Jacksonville Center
09:51PM 31.5128 -78.3431 North 446 513 34,900  Level Jacksonville Center
09:52PM 31.6394 -78.3247 North 446 513 34,900  Level Jacksonville Center
09:53PM 31.7681 -78.3014 North 456 525 34,900  Level Jacksonville Center
09:54PM 31.8989 -78.2803 North 468 539 34,900  Level Jacksonville Center
09:55PM 32.0275 -78.2567 North 468 539 34,900  Level Jacksonville Center
09:56PM 32.1581 -78.2353 North 463 533 34,900  Level Jacksonville Center
09:57PM 32.2886 -78.2089 10° North 463 533 34,900  Level Jacksonville Center
09:58PM 32.4172 -78.1875 North 463 533 34,900  Level Jacksonville Center
09:59PM 32.5461 -78.1758 North 463 533 34,900  Level Jacksonville Center
10:00PM 32.6725 -78.1497 10° North 463 533 34,900  Level Jacksonville Center
10:01PM 32.7992 -78.1281 North 463 533 34,900  Level Jacksonville Center
10:02PM 32.9256 -78.1092 North 463 533 34,900  Level Jacksonville Center
10:04PM 33.1614 -78.0744 North 453 521 34,900  Level Washington Center
10:05PM 33.2872 -78.0508 North 453 521 34,900  Level Washington Center
10:06PM 33.4169 -78.0322 North 453 521 34,900  Level Washington Center
10:07PM 33.5425 -78.0108 North 453 521 34,900  Level Washington Center
10:08PM 33.6700 -77.9897 North 453 521 34,900  Level Washington Center
10:09PM 33.7956 -77.9683 North 453 521 34,900  Level Washington Center
10:10PM 33.9256 -77.9444 North 453 521 34,900  Level Washington Center
10:11PM 34.0531 -77.9256 North 464 534 35,000  Climbing Washington Center
10:12PM 34.1808 -77.9014 North 464 534 35,000 -60 Level Washington Center
10:13PM 34.3272 -77.8831 North 470 541 34,900 -60 Descending Washington Center
10:14PM 34.4528 -77.8664 North 470 541 34,900  Level Washington Center
10:15PM 34.5781 -77.8547 North 459 528 34,900  Level Washington Center
10:16PM 34.7058 -77.8406 North 459 528 34,900  Level Washington Center
10:17PM 34.8292 -77.8236 North 459 528 35,000  Climbing Washington Center
10:18PM 34.9544 -77.8094 North 454 522 35,000 -60 Level Washington Center
10:19PM 35.0800 -77.7950 North 449 517 34,900 -60 Descending Washington Center
10:20PM 35.2056 -77.7833 North 449 517 34,900  Level Washington Center
10:21PM 35.3308 -77.7714 North 449 517 35,000  Climbing Washington Center
10:22PM 35.4583 -77.7569 North 444 511 35,000  Level Washington Center
10:23PM 35.5858 -77.7450 North 444 511 35,000  Level Washington Center
10:24PM 35.7092 -77.7306 North 444 511 35,000  Level Washington Center
10:25PM 35.8214 -77.7642 346° North 423 487 35,000  Level Washington Center
10:26PM 35.9267 -77.8158 338° Northwest 418 481 35,000  Level Washington Center
10:27PM 36.0322 -77.8650 339° North 407 468 35,000  Level Washington Center
10:28PM 36.1356 -77.9144 339° North 407 468 35,000  Level Washington Center
10:29PM 36.2389 -77.9639 339° North 402 463 35,000  Level Washington Center
10:30PM 36.3464 -78.0133 340° North 402 463 35,000  Level Washington Center
10:31PM 36.4394 -78.0578 339° North 402 463 35,000  Level Washington Center
10:32PM 36.5453 -78.0919 345° North 402 463 35,000  Level Washington Center
10:33PM 36.6653 -78.0336 21° North 401 461 35,000  Level Washington Center
10:34PM 36.7678 -77.9228 41° Northeast 434 499 35,000  Level Washington Center
10:35PM 36.8719 -77.8194 38° Northeast 462 532 35,000  Level Washington Center
10:36PM 36.9867 -77.7006 40° Northeast 482 555 35,000 -60 Level Washington Center
10:37PM 37.0906 -77.5967 39° Northeast 482 555 34,900  Descending Washington Center
10:38PM 37.1925 -77.4925 39° Northeast 482 555 35,000  Climbing Washington Center
10:39PM 37.2964 -77.3853 39° Northeast 482 555 35,000  Level Washington Center
10:40PM 37.3894 -77.2936 38° Northeast 477 549 35,000  Level Washington Center
10:41PM 37.4972 -77.1886 38° Northeast 477 549 35,000  Level Washington Center
10:42PM 37.6008 -77.0833 39° Northeast 482 555 35,000  Level Washington Center
10:43PM 37.7022 -76.9828 38° Northeast 472 543 35,000 -60 Level Washington Center
10:44PM 37.8014 -76.8847 38° Northeast 461 531 34,900 -60 Descending Washington Center
10:45PM 37.9025 -76.7867 37° Northeast 461 531 34,900  Level Washington Center
10:46PM 38.0197 -76.7436 16° North 438 504 35,000  Climbing Washington Center
10:47PM 38.1367 -76.7189 North 424 488 35,000  Level Washington Center
10:48PM 38.2517 -76.6758 16° North 424 488 35,000  Level Washington Center
10:49PM 38.3425 -76.5289 52° Northeast 424 488 35,000 -300 Level Washington Center
10:50PM 38.3689 -76.3492 79° East 456 525 34,500 -780 Descending Washington Center
10:51PM 38.4114 -76.1931 71° East 488 562 33,500 -1,200 Descending Washington Center
10:52PM 38.5100 -76.0853 41° Northeast 472 543 32,200 -1,080 Descending Washington Center
10:57PM 39.0730 -75.6660 41° Northeast 100 115 26,800 -900 Descending FlightAware
10:58PM 39.0950 -75.6520 26° Northeast 100 115 26,800  Level FlightAware
10:59PM 39.1160 -75.6390 26° Northeast 100 115 26,800  Level FlightAware
10:59PM 39.1250 -75.6330 27° Northeast 100 115 26,800  Level FlightAware
11:00PM 39.1460 -75.6200 26° Northeast 100 115 26,800 -3,180 Level FlightAware
11:02PM 39.5214 -75.2606 26° Northeast 371 427 19,700 -3,900 Descending Washington Center
11:03PM 39.5983 -75.1875 36° Northeast 356 410 18,200 -1,260 Descending Washington Center
11:04PM 39.6750 -75.1169 35° Northeast 338 389 17,200 -960 Descending Washington Center
11:05PM 39.7497 -75.0517 34° Northeast 327 376 16,300 -960 Descending Washington Center
11:06PM 39.8244 -74.9892 33° Northeast 322 371 15,300 -960 Descending Washington Center
11:07PM 39.8889 -74.9317 34° Northeast 317 365 14,400 -1,140 Descending Washington Center
11:08PM 39.9550 -74.8525 43° Northeast 312 359 13,100 -1,380 Descending Washington Center
11:09PM 40.0128 -74.7708 47° Northeast 307 353 11,700 -1,320 Descending Washington Center
11:10PM 40.1000 -74.6500 47° Northeast 301 346 10,000 -720 Descending New York TRACON
11:11PM 40.1500 -74.5667 52° Northeast 291 335 10,000  Level New York TRACON
11:12PM 40.2000 -74.5000 46° Northeast 245 282 10,000  Level New York TRACON
11:13PM 40.2500 -74.4500 37° Northeast 244 281 10,000  Level New York TRACON
11:14PM 40.3000 -74.3833 45° Northeast 243 280 10,000  Level New York TRACON
11:15PM 40.3333 -74.3167 57° Northeast 243 280 10,000 -660 Level New York TRACON
11:16PM 40.3833 -74.2667 37° Northeast 239 275 8,800 -1,020 Descending New York TRACON
11:17PM 40.4333 -74.2000 45° Northeast 229 264 8,000 -1,020 Descending New York TRACON
11:18PM 40.4833 -74.1500 37° Northeast 226 260 6,800 -1,080 Descending New York TRACON
11:19PM 40.5333 -74.1000 37° Northeast 214 246 5,900 -960 Descending New York TRACON
11:20PM 40.5667 -74.0667 37° Northeast 209 241 4,900 -960 Descending New York TRACON
11:21PM 40.6167 -74.0167 37° Northeast 203 234 4,000 -480 Descending New York TRACON
11:22PM 40.6667 -73.9667 37° Northeast 186 214 4,000  Level New York TRACON
11:23PM 40.7000 -73.9333 37° Northeast 196 226 4,000  Level New York TRACON
11:24PM 40.7333 -73.8667 57° Northeast 191 220 4,000  Level New York TRACON
11:25PM 40.7667 -73.8167 49° Northeast 193 222 4,000  Level New York TRACON
11:26PM 40.8000 -73.7667 49° Northeast 191 220 4,000  Level New York TRACON
11:27PM 40.8500 -73.7167 37° Northeast 192 221 4,000  Level New York TRACON
11:28PM 40.8833 -73.6667 49° Northeast 190 219 4,000  Level New York TRACON
11:29PM 40.9167 -73.6167 49° Northeast 192 221 4,000 -300 Level New York TRACON
11:30PM 40.9333 -73.5500 72° East 216 249 3,500 -540 Descending New York TRACON
11:31PM 40.9167 -73.4833 108° East 213 245 3,000 -300 Descending New York TRACON
11:32PM 40.8667 -73.4500 153° Southeast 216 249 3,000  Level New York TRACON
11:33PM 40.8333 -73.5000 229° Southwest 183 211 3,000  Level New York TRACON
11:34PM 40.7833 -73.5333 207° Southwest 183 211 3,000 -420 Level New York TRACON
11:35PM 40.7500 -73.5833 229° Southwest 187 215 2,200 -540 Descending New York TRACON
11:36PM 40.7000 -73.6167 207° Southwest 186 214 2,000 -120 Descending New York TRACON
11:37PM 40.6833 -73.6667 246° West 164 189 2,000 -180 Level New York TRACON
11:38PM 40.7000 -73.7333 288° West 154 177 1,700 -120 Descending New York TRACON
11:39PM 40.7333 -73.7667 323° Northwest 137 158 1,800 -360 Climbing New York TRACON
11:40PM 40.7500 -73.8000 303° West 123 142 1,000 -780 Descending New York TRACON
11:41PM 40.7667 -73.8500 294° West 125 144 300 -720 Descending New York TRACON